METAR Data
IDs: Format: Raw Decoded Include TAF

Data at: 1344 UTC 14 Dec 2019

PAEN 141253Z AUTO 02011KT 10SM OVC070 01/M04 A2956 RMK AO2 SLP014 T00111044 TSNO
PAEN 141153Z AUTO 02011KT 10SM BKN065 OVC085 01/M03 A2956 RMK AO2 UPB1058E10SNB1057E1058 SLP012 P0000 60000 T00111033 10017 20006 51009 TSNO
PAEN 141053Z AUTO 02014KT 10SM OVC040 01/M04 A2956 RMK AO2 SLP010 T00111044 TSNO
PAEN 140953Z AUTO 03012KT 10SM BKN090 BKN110 01/M05 A2955 RMK AO2 SLP009 T00061050 TSNO
PAEN 140853Z AUTO 02019KT 10SM FEW050 SCT070 OVC085 02/M05 A2953 RMK AO2 SLP003 T00171050 400281006 58005 TSNO
PAEN 140753Z AUTO 03014KT 10SM BKN065 01/M04 A2954 RMK AO2 SLP007 T00061044 TSNO
PAEN 140653Z AUTO 02017KT 10SM CLR 01/M05 A2954 RMK AO2 SLP005 T00061050 TSNO
PAEN 140553Z 02014KT 10SM CLR 01/M04 A2955 RMK AO2 SLP008 T00061039 10028 21006 58001
PAEN 140453Z 01013KT 10SM CLR 01/M03 A2955 RMK AO2 SLP010 T00061033
PAEN 140353Z 02012KT 10SM CLR 00/M04 A2955 RMK AO2 SLP009 T00001044
PAEN 140253Z 02014KT 10SM CLR 00/M04 A2955 RMK AO2 SLP009 T00001039 51003
PAEN 140153Z 02011KT 10SM CLR 00/M03 A2955 RMK AO2 SLP008 T00001033
PAEN 140053Z 03013KT 10SM FEW030 02/M03 A2954 RMK AO2 SLP007 T00171028
PAEN 132353Z 03011KT 10SM CLR 03/M02 A2954 RMK AO2 SLP005 T00281022 10028 20011 51019
PAEN 132253Z 04014KT 10SM FEW030 SCT110 03/M02 A2953 RMK AO2 SLP000 T00281017
PAEN 132153Z 03011KT 10SM CLR 03/M01 A2951 RMK AO2 SLP995 T00281011
PAEN 132053Z 01011KT 10SM CLR 02/M02 A2948 RMK AO2 SLP987 T00221017 51034
PAEN 131953Z 02010KT 10SM FEW020 SCT100 02/M02 A2946 RMK AO2 SLP978 T00221017
PAEN 131853Z 02010KT 10SM CLR 02/M02 A2942 RMK AO2 SLP965 T00171022
PAEN 131753Z 03010KT 10SM CLR 01/M03 A2939 RMK AO2 SLP953 T00111028 10022 20011 53031
PAEN 131653Z 02011KT 10SM CLR 01/M03 A2935
PAEN 131553Z 03010KT 10SM CLR 01/M03 A2932 RMK AO2 SLP930 T00111028
PAEN 131453Z AUTO 03014KT 10SM SCT100 01/M03 A2929 RMK AO2 SLP922 T00111033 53014 TSNO
PAEN 131353Z AUTO 04016KT 10SM OVC100 02/M04 A2928 RMK AO2 PK WND 03027/1309 SLP916 T00171039 TSNO
PAEN 131253Z AUTO 02017KT 10SM FEW120 02/M04 A2925 RMK AO2 SLP907 T00171039 TSNO
PAEN 131153Z AUTO 03010KT 10SM OVC080 02/M04 A2925 RMK AO2 SLP908 T00171039 10022 20011 53015 TSNO
PAEN 131053Z AUTO 02014KT 10SM SCT080 01/M03 A2923 RMK AO2 SLP900 T00111028 TSNO
PAEN 130953Z AUTO 03009KT 10SM CLR 01/M04 A2922 RMK AO2 SLP897 T00111039 TSNO
PAEN 130853Z AUTO 03009KT 10SM SCT070 02/M04 A2921 RMK AO2 SLP893 T00221039 400440011 53012 TSNO
PAEN 130753Z AUTO 05010KT 10SM FEW120 02/M04 A2919 RMK AO2 SLP888 T00171039 TSNO
PAEN 130653Z AUTO 03011KT 10SM CLR 02/M04 A2918 RMK AO2 SLP883 T00221039 TSNO
PAEN 130553Z 36006KT 10SM CLR 01/M04 A2917 RMK AO2 SLP881 T00111039 10028 20011 55002
PAEN 130453Z 02009KT 10SM CLR 01/M04 A2917 RMK AO2 SLP881 T00111039
PAEN 130353Z 04012KT 10SM CLR 01/M04 A2917 RMK AO2 SLP880 T00111039
PAEN 130253Z 02012KT 10SM FEW120 01/M03 A2918 RMK AO2 SLP883 T00111033 56004
PAEN 130153Z 01008KT 10SM CLR 02/M04 A2918 RMK AO2 SLP884 T00171039